createdAt,value
2019-05-30T00:00:12.543Z,11.76
2019-05-30T00:01:00.681Z,11.79
2019-05-30T00:02:00.471Z,11.82
2019-05-30T00:03:00.271Z,11.78
2019-05-30T00:04:00.362Z,11.76
2019-05-30T00:05:00.316Z,11.76
2019-05-30T00:06:00.547Z,11.75
2019-05-30T00:07:00.540Z,11.80
2019-05-30T00:08:00.338Z,11.73
2019-05-30T00:09:00.512Z,11.79
2019-05-30T00:10:00.575Z,11.79
2019-05-30T00:11:00.612Z,11.72
2019-05-30T00:12:00.813Z,11.70
2019-05-30T00:13:00.642Z,11.62
2019-05-30T00:14:00.683Z,11.69
2019-05-30T00:15:00.569Z,11.65
2019-05-30T00:16:00.713Z,11.64
2019-05-30T00:17:00.830Z,11.60
2019-05-30T00:18:00.772Z,11.65
2019-05-30T00:19:00.787Z,11.62
2019-05-30T00:20:00.684Z,11.65
2019-05-30T00:21:00.605Z,11.57
2019-05-30T00:22:00.742Z,11.57
2019-05-30T00:22:59.432Z,11.51
2019-05-30T00:23:59.971Z,11.51
2019-05-30T00:25:00.060Z,11.51
2019-05-30T00:25:59.385Z,11.52
2019-05-30T00:27:00.276Z,11.51
2019-05-30T00:27:59.400Z,11.47
2019-05-30T00:29:00.290Z,11.49
2019-05-30T00:29:59.346Z,11.54
2019-05-30T00:31:00.384Z,11.46
2019-05-30T00:31:59.431Z,11.51
2019-05-30T00:33:00.594Z,11.49
2019-05-30T00:33:59.571Z,11.43
2019-05-30T00:34:59.668Z,11.46
2019-05-30T00:35:59.862Z,11.49
2019-05-30T00:36:59.854Z,11.46
2019-05-30T00:37:59.710Z,11.51
2019-05-30T00:38:59.761Z,11.54
2019-05-30T00:39:59.860Z,11.51
2019-05-30T00:40:59.974Z,11.47
2019-05-30T00:41:59.984Z,11.44
2019-05-30T00:43:00.023Z,11.46
2019-05-30T00:43:59.943Z,11.44
2019-05-30T00:44:59.956Z,11.43
2019-05-30T00:46:00.017Z,11.47
2019-05-30T00:47:00.499Z,11.37
2019-05-30T00:48:00.127Z,11.46
2019-05-30T00:49:00.180Z,11.44
2019-05-30T00:50:00.196Z,11.46
2019-05-30T00:51:00.210Z,11.32
2019-05-30T00:52:00.440Z,11.32
2019-05-30T00:52:59.092Z,11.32
2019-05-30T00:53:59.098Z,11.33
2019-05-30T00:54:59.066Z,11.32
2019-05-30T00:56:01.537Z,11.33
2019-05-30T00:56:59.043Z,11.28
2019-05-30T00:57:59.059Z,11.29
2019-05-30T00:58:59.029Z,11.37
2019-05-30T00:59:59.034Z,11.28
2019-05-30T01:01:01.030Z,11.36
2019-05-30T01:01:58.983Z,11.40
2019-05-30T01:02:59.863Z,11.32
2019-05-30T01:03:58.969Z,11.28
2019-05-30T01:04:58.963Z,11.43
2019-05-30T01:05:58.947Z,11.33
2019-05-30T01:06:59.110Z,11.32
2019-05-30T01:07:58.933Z,11.40
2019-05-30T01:08:59.100Z,11.32
2019-05-30T01:09:59.145Z,11.35
2019-05-30T01:10:59.013Z,11.37
2019-05-30T01:11:59.105Z,11.37
2019-05-30T01:12:59.916Z,11.39
2019-05-30T01:13:59.023Z,11.32
2019-05-30T01:14:58.936Z,11.40
2019-05-30T01:15:58.996Z,11.42
2019-05-30T01:16:59.043Z,11.35
2019-05-30T01:17:59.119Z,11.27
2019-05-30T01:18:59.098Z,11.28
2019-05-30T01:19:59.103Z,11.21
2019-05-30T01:20:59.142Z,11.25
2019-05-30T01:21:59.127Z,11.19
2019-05-30T01:22:59.177Z,11.09
2019-05-30T01:23:59.199Z,11.10
2019-05-30T01:24:59.073Z,11.14
2019-05-30T01:25:59.351Z,11.09
2019-05-30T01:26:59.219Z,11.06
2019-05-30T01:27:59.471Z,10.96
2019-05-30T01:28:59.317Z,10.92
2019-05-30T01:29:59.412Z,10.94
2019-05-30T01:31:02.988Z,10.92
2019-05-30T01:31:59.658Z,10.89
2019-05-30T01:32:59.650Z,10.86
2019-05-30T01:33:59.495Z,10.84
2019-05-30T01:34:59.753Z,10.81
2019-05-30T01:35:59.648Z,10.82
2019-05-30T01:36:59.846Z,10.89
2019-05-30T01:37:59.684Z,10.88
2019-05-30T01:38:59.613Z,10.97
2019-05-30T01:39:59.699Z,10.92
2019-05-30T01:40:59.616Z,10.96
2019-05-30T01:41:59.669Z,10.92
2019-05-30T01:42:59.823Z,10.96
2019-05-30T01:43:59.750Z,10.97
2019-05-30T01:44:58.502Z,10.99
2019-05-30T01:45:58.502Z,10.99
2019-05-30T01:46:58.486Z,10.97
2019-05-30T01:47:58.498Z,11.02
2019-05-30T01:48:58.462Z,11.02
2019-05-30T01:49:58.449Z,11.03
2019-05-30T01:51:00.314Z,10.96
2019-05-30T01:51:58.573Z,11.00
2019-05-30T01:52:58.540Z,11.02
2019-05-30T01:53:58.408Z,10.96
2019-05-30T01:54:58.580Z,11.07
2019-05-30T01:55:58.576Z,10.96
2019-05-30T01:56:58.497Z,10.96
2019-05-30T01:57:58.718Z,10.96
2019-05-30T01:58:58.688Z,10.97
2019-05-30T01:59:58.663Z,10.91
2019-05-30T02:00:58.796Z,10.91
2019-05-30T02:01:58.907Z,10.92
2019-05-30T02:02:58.844Z,10.92
2019-05-30T02:03:59.072Z,10.91
2019-05-30T02:04:58.843Z,10.88
2019-05-30T02:05:58.919Z,10.89
2019-05-30T02:06:59.212Z,10.89
2019-05-30T02:07:58.996Z,10.88
2019-05-30T02:08:59.130Z,10.96
2019-05-30T02:09:59.144Z,10.92
2019-05-30T02:10:59.195Z,10.79
2019-05-30T02:11:59.301Z,10.86
2019-05-30T02:12:59.294Z,10.82
2019-05-30T02:13:59.461Z,10.81
2019-05-30T02:14:59.324Z,10.66
2019-05-30T02:15:59.490Z,10.67
2019-05-30T02:16:59.505Z,10.78
2019-05-30T02:17:59.426Z,10.73
2019-05-30T02:18:59.467Z,10.73
2019-05-30T02:19:58.114Z,10.74
2019-05-30T02:20:58.107Z,10.76
2019-05-30T02:21:58.095Z,10.68
2019-05-30T02:22:58.143Z,10.70
2019-05-30T02:23:58.075Z,10.59
2019-05-30T02:24:58.087Z,10.56
2019-05-30T02:25:58.053Z,10.53
2019-05-30T02:26:58.041Z,10.61
2019-05-30T02:27:58.054Z,10.67
2019-05-30T02:28:58.030Z,10.68
2019-05-30T02:29:58.003Z,10.68
2019-05-30T02:30:58.002Z,10.70
2019-05-30T02:31:57.988Z,10.71
2019-05-30T02:32:57.980Z,10.68
2019-05-30T02:33:57.985Z,10.68
2019-05-30T02:34:57.965Z,10.70
2019-05-30T02:35:57.950Z,10.71
2019-05-30T02:36:57.934Z,10.71
2019-05-30T02:37:57.928Z,10.60
2019-05-30T02:38:57.924Z,10.56
2019-05-30T02:40:01.009Z,10.56
2019-05-30T02:40:58.898Z,10.56
2019-05-30T02:41:57.884Z,10.66
2019-05-30T02:42:57.860Z,10.56
2019-05-30T02:43:57.876Z,10.52
2019-05-30T02:44:57.861Z,10.53
2019-05-30T02:45:57.851Z,10.41
2019-05-30T02:46:57.828Z,10.40
2019-05-30T02:47:58.362Z,10.45
2019-05-30T02:48:59.614Z,10.36
2019-05-30T02:49:58.391Z,10.40
2019-05-30T02:50:57.807Z,10.40
2019-05-30T02:51:57.814Z,10.42
2019-05-30T02:52:57.783Z,10.47
2019-05-30T02:53:57.892Z,10.51
2019-05-30T02:54:57.724Z,10.51
2019-05-30T02:55:57.726Z,10.52
2019-05-30T02:56:57.714Z,10.53
2019-05-30T02:57:57.686Z,10.48
2019-05-30T02:58:57.718Z,10.53
2019-05-30T02:59:57.679Z,10.64
2019-05-30T03:00:57.684Z,10.56
2019-05-30T03:02:01.829Z,10.56
2019-05-30T03:02:58.641Z,10.63
2019-05-30T03:03:57.651Z,10.61
2019-05-30T03:04:57.641Z,10.60
2019-05-30T03:05:57.616Z,10.56
2019-05-30T03:06:57.610Z,10.63
2019-05-30T03:07:57.600Z,10.59
2019-05-30T03:08:57.585Z,10.48
2019-05-30T03:09:57.560Z,10.45
2019-05-30T03:10:57.550Z,10.48
2019-05-30T03:11:57.542Z,10.38
2019-05-30T03:12:57.551Z,10.44
2019-05-30T03:13:57.538Z,10.40
2019-05-30T03:14:57.518Z,10.48
2019-05-30T03:15:57.498Z,10.44
2019-05-30T03:16:57.492Z,10.41
2019-05-30T03:17:57.480Z,10.41
2019-05-30T03:18:57.490Z,10.55
2019-05-30T03:19:57.470Z,10.52
2019-05-30T03:20:57.449Z,10.55
2019-05-30T03:21:57.432Z,10.56
2019-05-30T03:22:57.417Z,10.60
2019-05-30T03:23:57.436Z,10.56
2019-05-30T03:24:57.417Z,10.56
2019-05-30T03:25:57.390Z,10.55
2019-05-30T03:26:57.381Z,10.56
2019-05-30T03:27:57.372Z,10.56
2019-05-30T03:28:57.371Z,10.55
2019-05-30T03:29:57.352Z,10.53
2019-05-30T03:30:57.348Z,10.60
2019-05-30T03:31:57.329Z,10.61
2019-05-30T03:33:16.969Z,10.60
2019-05-30T03:33:58.345Z,10.59
2019-05-30T03:34:57.294Z,10.52
2019-05-30T03:35:57.302Z,10.53
2019-05-30T03:36:57.261Z,10.56
2019-05-30T03:37:57.274Z,10.63
2019-05-30T03:38:57.276Z,10.56
2019-05-30T03:39:57.259Z,10.61
2019-05-30T03:40:57.222Z,10.74
2019-05-30T03:41:57.216Z,10.74
2019-05-30T03:42:57.223Z,10.70
2019-05-30T03:43:57.209Z,10.76
2019-05-30T03:44:57.186Z,10.89
2019-05-30T03:45:57.172Z,10.76
2019-05-30T03:46:57.157Z,10.70
2019-05-30T03:47:57.152Z,10.71
2019-05-30T03:48:57.151Z,10.71
2019-05-30T03:49:57.136Z,10.71
2019-05-30T03:50:57.119Z,10.66
2019-05-30T03:51:57.116Z,10.60
2019-05-30T03:52:57.096Z,10.64
2019-05-30T03:53:57.092Z,10.60
2019-05-30T03:54:57.066Z,10.56
2019-05-30T03:55:57.054Z,10.55
2019-05-30T03:56:57.081Z,10.51
2019-05-30T03:57:57.034Z,10.68
2019-05-30T03:58:57.047Z,10.60
2019-05-30T03:59:57.008Z,10.55
2019-05-30T04:00:56.997Z,10.61
2019-05-30T04:01:56.994Z,10.55
2019-05-30T04:02:59.018Z,10.60
2019-05-30T04:03:57.006Z,10.63
2019-05-30T04:04:56.956Z,10.66
2019-05-30T04:05:56.950Z,10.73
2019-05-30T04:06:56.988Z,10.70
2019-05-30T04:07:56.938Z,10.78
2019-05-30T04:08:56.921Z,10.79
2019-05-30T04:09:56.919Z,10.79
2019-05-30T04:10:56.902Z,10.88
2019-05-30T04:11:56.892Z,10.81
2019-05-30T04:12:56.877Z,10.91
2019-05-30T04:13:56.873Z,10.97
2019-05-30T04:14:57.430Z,10.96
2019-05-30T04:15:56.838Z,10.92
2019-05-30T04:16:56.889Z,11.10
2019-05-30T04:17:56.855Z,10.99
2019-05-30T04:18:56.801Z,11.02
2019-05-30T04:19:56.850Z,10.99
2019-05-30T04:20:56.779Z,11.02
2019-05-30T04:21:56.770Z,11.03
2019-05-30T04:22:56.779Z,11.07
2019-05-30T04:23:56.748Z,11.11
2019-05-30T04:24:56.754Z,11.15
2019-05-30T04:26:00.353Z,11.19
2019-05-30T04:26:56.702Z,11.21
2019-05-30T04:27:56.706Z,11.15
2019-05-30T04:28:56.689Z,11.29
2019-05-30T04:29:56.698Z,11.25
2019-05-30T04:30:56.664Z,11.29
2019-05-30T04:31:56.664Z,11.36
2019-05-30T04:33:16.050Z,11.29
2019-05-30T04:33:57.627Z,11.43
2019-05-30T04:34:56.766Z,11.47
2019-05-30T04:35:56.615Z,11.40
2019-05-30T04:36:56.603Z,11.43
2019-05-30T04:37:56.595Z,11.44
2019-05-30T04:38:56.585Z,11.54
2019-05-30T04:39:56.595Z,11.46
2019-05-30T04:40:56.562Z,11.57
2019-05-30T04:41:56.562Z,11.55
2019-05-30T04:42:56.541Z,11.62
2019-05-30T04:43:56.521Z,11.61
2019-05-30T04:44:56.522Z,11.69
2019-05-30T04:45:56.503Z,11.64
2019-05-30T04:46:56.487Z,11.62
2019-05-30T04:47:56.481Z,11.69
2019-05-30T04:48:56.494Z,11.82
2019-05-30T04:49:56.500Z,11.79
2019-05-30T04:50:56.443Z,11.83
2019-05-30T04:51:56.433Z,11.78
2019-05-30T04:52:56.437Z,11.85
2019-05-30T04:53:56.420Z,11.85
2019-05-30T04:54:57.314Z,11.85
2019-05-30T04:55:56.405Z,11.86
2019-05-30T04:56:56.388Z,11.94
2019-05-30T04:57:56.381Z,11.96
2019-05-30T04:58:56.364Z,11.95
2019-05-30T04:59:56.383Z,12.07
2019-05-30T05:00:56.349Z,12.04
2019-05-30T05:01:56.380Z,12.07
2019-05-30T05:02:56.315Z,12.12
2019-05-30T05:03:56.285Z,12.23
2019-05-30T05:04:56.306Z,12.10
2019-05-30T05:05:56.292Z,12.21
2019-05-30T05:06:56.266Z,12.21
2019-05-30T05:07:56.250Z,12.27
2019-05-30T05:08:56.261Z,12.23
2019-05-30T05:09:56.281Z,12.21
2019-05-30T05:10:56.218Z,12.31
2019-05-30T05:11:56.210Z,12.29
2019-05-30T05:12:56.206Z,12.27
2019-05-30T05:13:56.233Z,12.29
2019-05-30T05:14:56.211Z,12.32
2019-05-30T05:15:56.841Z,12.38
2019-05-30T05:16:56.162Z,12.41
2019-05-30T05:17:56.147Z,12.38
2019-05-30T05:18:56.152Z,12.49
2019-05-30T05:19:56.126Z,12.38
2019-05-30T05:20:56.142Z,12.45
2019-05-30T05:21:56.100Z,12.54
2019-05-30T05:22:56.089Z,12.47
2019-05-30T05:23:56.070Z,12.53
2019-05-30T05:24:56.063Z,12.49
2019-05-30T05:26:00.898Z,12.50
2019-05-30T05:26:57.046Z,12.50
2019-05-30T05:27:56.037Z,12.53
2019-05-30T05:28:56.028Z,12.62
2019-05-30T05:29:56.014Z,12.60
2019-05-30T05:30:56.001Z,12.59
2019-05-30T05:31:55.992Z,12.72
2019-05-30T05:32:55.979Z,12.65
2019-05-30T05:33:57.338Z,12.67
2019-05-30T05:34:55.954Z,12.74
2019-05-30T05:35:55.968Z,12.71
2019-05-30T05:36:55.934Z,12.77
2019-05-30T05:37:55.964Z,12.72
2019-05-30T05:38:55.911Z,12.82
2019-05-30T05:39:55.886Z,12.75
2019-05-30T05:40:55.908Z,12.78
2019-05-30T05:41:55.876Z,12.83
2019-05-30T05:42:55.872Z,12.83
2019-05-30T05:43:55.848Z,12.82
2019-05-30T05:44:55.844Z,12.89
2019-05-30T05:45:55.860Z,12.77
2019-05-30T05:46:55.812Z,12.87
2019-05-30T05:47:55.806Z,12.90
2019-05-30T05:48:55.796Z,12.93
2019-05-30T05:49:55.869Z,13.01
2019-05-30T05:50:55.818Z,13.03
2019-05-30T05:51:55.766Z,13.01
2019-05-30T05:52:55.749Z,13.08
2019-05-30T05:53:55.742Z,13.03
2019-05-30T05:54:55.737Z,13.11
2019-05-30T05:55:55.745Z,13.08
2019-05-30T05:56:55.714Z,13.05
2019-05-30T05:57:55.702Z,13.14
2019-05-30T05:58:55.688Z,13.10
2019-05-30T05:59:55.675Z,13.14
2019-05-30T06:00:55.689Z,13.19
2019-05-30T06:01:55.652Z,13.14
2019-05-30T06:02:55.643Z,13.17
2019-05-30T06:04:11.672Z,13.17
2019-05-30T06:04:56.630Z,13.19
2019-05-30T06:05:55.700Z,13.20
2019-05-30T06:06:55.606Z,13.26
2019-05-30T06:07:55.585Z,13.28
2019-05-30T06:08:55.578Z,13.29
2019-05-30T06:09:55.571Z,13.32
2019-05-30T06:10:55.584Z,13.30
2019-05-30T06:11:55.547Z,13.30
2019-05-30T06:12:55.528Z,13.39
2019-05-30T06:13:55.523Z,13.36
2019-05-30T06:14:55.514Z,13.41
2019-05-30T06:15:55.520Z,13.48
2019-05-30T06:16:55.965Z,13.46
2019-05-30T06:17:56.358Z,13.52
2019-05-30T06:18:55.503Z,13.52
2019-05-30T06:19:55.451Z,13.55
2019-05-30T06:20:55.463Z,13.60
2019-05-30T06:21:55.437Z,13.64
2019-05-30T06:22:55.417Z,13.59
2019-05-30T06:23:55.414Z,13.66
2019-05-30T06:24:55.402Z,13.62
2019-05-30T06:25:55.551Z,13.57
2019-05-30T06:26:55.505Z,13.69
2019-05-30T06:27:55.536Z,13.75
2019-05-30T06:28:55.384Z,13.78
2019-05-30T06:29:55.376Z,13.69
2019-05-30T06:30:58.729Z,13.71
2019-05-30T06:31:55.372Z,13.77
2019-05-30T06:32:55.317Z,13.77
2019-05-30T06:33:55.298Z,13.77
2019-05-30T06:34:55.277Z,13.88
2019-05-30T06:35:55.273Z,13.79
2019-05-30T06:36:55.306Z,13.88
2019-05-30T06:37:55.243Z,13.87
2019-05-30T06:38:55.261Z,13.92
2019-05-30T06:39:55.254Z,13.89
2019-05-30T06:40:55.227Z,13.97
2019-05-30T06:41:55.225Z,13.96
2019-05-30T06:42:55.189Z,13.97
2019-05-30T06:43:55.180Z,13.97
2019-05-30T06:44:55.177Z,13.99
2019-05-30T06:45:55.181Z,14.00
2019-05-30T06:46:55.244Z,14.03
2019-05-30T06:47:55.132Z,14.03
2019-05-30T06:48:55.133Z,13.99
2019-05-30T06:49:55.124Z,13.96
2019-05-30T06:50:55.104Z,14.07
2019-05-30T06:51:55.124Z,14.12
2019-05-30T06:52:55.093Z,14.09
2019-05-30T06:53:55.101Z,14.12
2019-05-30T06:54:55.078Z,14.10
2019-05-30T06:55:55.054Z,14.07
2019-05-30T06:56:55.054Z,14.07
2019-05-30T06:57:55.036Z,14.15
2019-05-30T06:58:55.024Z,14.18
2019-05-30T06:59:55.009Z,14.17
2019-05-30T07:00:54.995Z,14.27
2019-05-30T07:01:55.847Z,14.21
2019-05-30T07:02:55.042Z,14.27
2019-05-30T07:03:55.084Z,14.28
2019-05-30T07:04:55.576Z,14.28
2019-05-30T07:05:55.468Z,14.29
2019-05-30T07:06:55.203Z,14.33
2019-05-30T07:07:54.960Z,14.39
2019-05-30T07:08:54.911Z,14.37
2019-05-30T07:09:54.908Z,14.45
2019-05-30T07:10:54.884Z,14.45
2019-05-30T07:11:54.890Z,14.40
2019-05-30T07:12:54.878Z,14.39
2019-05-30T07:13:54.852Z,14.51
2019-05-30T07:14:54.952Z,14.55
2019-05-30T07:15:54.841Z,14.52
2019-05-30T07:16:54.856Z,14.57
2019-05-30T07:17:54.854Z,14.46
2019-05-30T07:18:54.840Z,14.60
2019-05-30T07:19:54.821Z,14.68
2019-05-30T07:20:54.794Z,14.58
2019-05-30T07:21:54.789Z,14.62
2019-05-30T07:22:54.783Z,14.69
2019-05-30T07:23:54.741Z,14.69
2019-05-30T07:24:54.736Z,14.73
2019-05-30T07:25:54.725Z,14.73
2019-05-30T07:26:54.722Z,14.69
2019-05-30T07:27:54.698Z,14.80
2019-05-30T07:28:54.691Z,14.73
2019-05-30T07:29:54.688Z,14.78
2019-05-30T07:30:54.654Z,14.83
2019-05-30T07:31:54.704Z,14.86
2019-05-30T07:32:54.661Z,14.92
2019-05-30T07:33:54.640Z,14.92
2019-05-30T07:35:06.121Z,14.89
2019-05-30T07:35:55.610Z,14.91
2019-05-30T07:36:54.617Z,14.91
2019-05-30T07:37:54.598Z,15.01
2019-05-30T07:38:54.578Z,15.02
2019-05-30T07:39:54.588Z,15.02
2019-05-30T07:40:54.548Z,15.01
2019-05-30T07:42:05.600Z,15.06
2019-05-30T07:42:55.535Z,15.10
2019-05-30T07:43:55.431Z,15.10
2019-05-30T07:44:54.512Z,15.10
2019-05-30T07:45:58.172Z,15.10
2019-05-30T07:46:54.517Z,15.16
2019-05-30T07:47:54.473Z,15.16
2019-05-30T07:48:54.464Z,15.25
2019-05-30T07:49:54.457Z,15.20
2019-05-30T07:50:54.441Z,15.23
2019-05-30T07:51:54.464Z,15.21
2019-05-30T07:52:54.428Z,15.23
2019-05-30T07:53:54.407Z,15.29
2019-05-30T07:54:54.408Z,15.32
2019-05-30T07:55:54.394Z,15.36
2019-05-30T07:56:54.427Z,15.35
2019-05-30T07:57:54.441Z,15.32
2019-05-30T07:58:54.357Z,15.28
2019-05-30T07:59:54.348Z,15.38
2019-05-30T08:00:54.330Z,15.38
2019-05-30T08:01:54.369Z,15.38
2019-05-30T08:02:54.314Z,15.44
2019-05-30T08:03:54.303Z,15.39
2019-05-30T08:04:54.286Z,15.39
2019-05-30T08:05:54.277Z,15.44
2019-05-30T08:06:54.285Z,15.44
2019-05-30T08:07:54.257Z,15.49
2019-05-30T08:08:54.246Z,15.44
2019-05-30T08:09:54.229Z,15.47
2019-05-30T08:11:08.259Z,15.47
2019-05-30T08:11:55.228Z,15.53
2019-05-30T08:12:54.190Z,15.49
2019-05-30T08:13:54.179Z,15.57
2019-05-30T08:14:54.173Z,15.57
2019-05-30T08:15:54.182Z,15.59
2019-05-30T08:16:54.174Z,15.53
2019-05-30T08:17:54.146Z,15.59
2019-05-30T08:18:54.134Z,15.59
2019-05-30T08:19:54.117Z,15.57
2019-05-30T08:20:54.108Z,15.68
2019-05-30T08:21:54.119Z,15.75
2019-05-30T08:22:54.091Z,15.69
2019-05-30T08:23:54.076Z,15.68
2019-05-30T08:24:54.062Z,15.76
2019-05-30T08:25:54.059Z,15.82
2019-05-30T08:26:54.048Z,15.84
2019-05-30T08:27:54.082Z,15.84
2019-05-30T08:28:54.015Z,15.82
2019-05-30T08:29:54.006Z,15.87
2019-05-30T08:30:56.808Z,15.80
2019-05-30T08:31:54.003Z,16.00
2019-05-30T08:32:53.975Z,15.87
2019-05-30T08:33:53.964Z,15.94
2019-05-30T08:34:53.951Z,15.96
2019-05-30T08:35:53.943Z,16.01
2019-05-30T08:36:53.945Z,16.02
2019-05-30T08:37:53.925Z,16.04
2019-05-30T08:38:53.906Z,16.07
2019-05-30T08:39:53.896Z,16.05
2019-05-30T08:40:53.892Z,16.08
2019-05-30T08:41:53.898Z,16.05
2019-05-30T08:42:53.854Z,16.11
2019-05-30T08:43:53.865Z,16.09
2019-05-30T08:44:53.842Z,16.12
2019-05-30T08:45:53.840Z,16.08
2019-05-30T08:46:53.842Z,16.07
2019-05-30T08:47:53.808Z,16.08
2019-05-30T08:48:53.802Z,16.14
2019-05-30T08:49:53.808Z,16.14
2019-05-30T08:50:53.786Z,16.20
2019-05-30T08:51:53.800Z,16.17
2019-05-30T08:52:53.763Z,16.24
2019-05-30T08:53:53.745Z,16.21
2019-05-30T08:54:53.724Z,16.23
2019-05-30T08:55:53.715Z,16.24
2019-05-30T08:56:53.739Z,16.23
2019-05-30T08:57:53.703Z,16.31
2019-05-30T08:58:53.688Z,16.34
2019-05-30T08:59:54.384Z,16.35
2019-05-30T09:00:53.666Z,16.35
2019-05-30T09:01:53.681Z,16.38
2019-05-30T09:02:53.649Z,16.46
2019-05-30T09:03:53.631Z,16.39
2019-05-30T09:04:53.627Z,16.35
2019-05-30T09:06:03.541Z,16.41
2019-05-30T09:06:54.620Z,16.41
2019-05-30T09:07:53.587Z,16.48
2019-05-30T09:08:53.571Z,16.52
2019-05-30T09:09:53.558Z,16.56
2019-05-30T09:10:53.555Z,16.52
2019-05-30T09:11:53.568Z,16.52
2019-05-30T09:12:53.564Z,16.56
2019-05-30T09:13:53.528Z,16.63
2019-05-30T09:14:53.502Z,16.63
2019-05-30T09:15:53.505Z,16.68
2019-05-30T09:16:53.489Z,16.66
2019-05-30T09:17:53.500Z,16.64
2019-05-30T09:18:53.459Z,16.68
2019-05-30T09:19:53.461Z,16.67
2019-05-30T09:20:53.443Z,16.70
2019-05-30T09:21:53.447Z,16.71
2019-05-30T09:22:53.434Z,16.70
2019-05-30T09:23:56.892Z,16.76
2019-05-30T09:24:54.402Z,16.75
2019-05-30T09:25:53.390Z,16.78
2019-05-30T09:26:53.381Z,16.75
2019-05-30T09:27:53.414Z,16.79
2019-05-30T09:28:53.348Z,16.85
2019-05-30T09:29:53.335Z,16.93
2019-05-30T09:30:53.326Z,16.93
2019-05-30T09:31:53.330Z,16.97
2019-05-30T09:32:53.363Z,17.01
2019-05-30T09:33:53.297Z,16.96
2019-05-30T09:34:53.349Z,17.00
2019-05-30T09:35:53.275Z,16.97
2019-05-30T09:36:53.271Z,17.00
2019-05-30T09:37:53.266Z,17.08
2019-05-30T09:38:53.259Z,17.11
2019-05-30T09:39:53.230Z,17.11
2019-05-30T09:40:53.214Z,17.11
2019-05-30T09:41:53.207Z,17.19
2019-05-30T09:42:53.215Z,17.19
2019-05-30T09:43:53.191Z,17.11
2019-05-30T09:44:53.280Z,17.15
2019-05-30T09:45:53.186Z,17.12
2019-05-30T09:46:53.151Z,17.12
2019-05-30T09:47:53.157Z,17.12
2019-05-30T09:48:53.126Z,17.14
2019-05-30T09:49:53.127Z,17.08
2019-05-30T09:50:53.110Z,17.14
2019-05-30T09:51:53.092Z,17.26
2019-05-30T09:52:53.103Z,17.14
2019-05-30T09:53:53.091Z,17.18
2019-05-30T09:54:53.078Z,17.22
2019-05-30T09:55:53.141Z,17.19
2019-05-30T09:56:54.120Z,17.22
2019-05-30T09:57:53.498Z,17.22
2019-05-30T09:58:53.022Z,17.22
2019-05-30T09:59:53.006Z,17.25
2019-05-30T10:00:53.000Z,17.25
2019-05-30T10:01:52.996Z,17.33
2019-05-30T10:02:52.996Z,17.37
2019-05-30T10:03:52.970Z,17.37
2019-05-30T10:04:52.954Z,17.34
2019-05-30T10:05:52.949Z,17.40
2019-05-30T10:06:52.929Z,17.37
2019-05-30T10:07:53.082Z,17.41
2019-05-30T10:08:53.110Z,17.49
2019-05-30T10:09:53.135Z,17.43
2019-05-30T10:10:53.480Z,17.54
2019-05-30T10:11:53.498Z,17.63
2019-05-30T10:12:52.895Z,17.56
2019-05-30T10:13:52.986Z,17.62
2019-05-30T10:14:53.011Z,17.64
2019-05-30T10:15:52.827Z,17.64
2019-05-30T10:16:55.999Z,17.72
2019-05-30T10:17:54.531Z,17.74
2019-05-30T10:18:52.948Z,17.71
2019-05-30T10:19:53.070Z,17.77
2019-05-30T10:20:53.665Z,17.77
2019-05-30T10:21:53.259Z,17.81
2019-05-30T10:22:53.804Z,17.74
2019-05-30T10:23:53.733Z,17.81
2019-05-30T10:24:53.346Z,17.79
2019-05-30T10:25:53.368Z,17.79
2019-05-30T10:26:53.173Z,17.86
2019-05-30T10:27:54.639Z,17.95
2019-05-30T10:28:53.344Z,17.90
2019-05-30T10:29:53.333Z,17.84
2019-05-30T10:30:57.352Z,17.96
2019-05-30T10:31:53.655Z,18.00
2019-05-30T10:32:53.792Z,17.92
2019-05-30T10:33:52.995Z,17.95
2019-05-30T10:34:53.842Z,17.96
2019-05-30T10:35:53.485Z,18.03
2019-05-30T10:36:53.699Z,18.00
2019-05-30T10:37:52.908Z,17.96
2019-05-30T10:38:53.812Z,17.97
2019-05-30T10:39:57.227Z,17.97
2019-05-30T10:40:54.083Z,18.00
2019-05-30T10:41:53.127Z,17.99
2019-05-30T10:42:53.277Z,17.97
2019-05-30T10:43:53.140Z,18.12
2019-05-30T10:44:52.908Z,18.07
2019-05-30T10:45:53.391Z,18.12
2019-05-30T10:46:52.927Z,18.08
2019-05-30T10:47:53.694Z,18.20
2019-05-30T10:48:52.778Z,18.21
2019-05-30T10:49:53.540Z,18.30
2019-05-30T10:50:52.454Z,18.23
2019-05-30T10:51:57.143Z,18.26
2019-05-30T10:52:53.667Z,18.26
2019-05-30T10:53:53.935Z,18.25
2019-05-30T10:54:53.442Z,18.36
2019-05-30T10:55:53.621Z,18.23
2019-05-30T10:56:53.552Z,18.29
2019-05-30T10:57:55.742Z,18.30
2019-05-30T10:58:53.370Z,18.36
2019-05-30T10:59:52.601Z,18.36
2019-05-30T11:00:53.878Z,18.42
2019-05-30T11:01:53.037Z,18.47
2019-05-30T11:02:52.886Z,18.45
2019-05-30T11:03:52.656Z,18.45
2019-05-30T11:04:53.122Z,18.52
2019-05-30T11:05:52.899Z,18.51
2019-05-30T11:07:09.915Z,18.57
2019-05-30T11:08:02.034Z,18.55
2019-05-30T11:08:53.303Z,18.55
2019-05-30T11:09:52.799Z,18.62
2019-05-30T11:10:52.717Z,18.58
2019-05-30T11:11:52.828Z,18.63
2019-05-30T11:12:57.486Z,18.66
2019-05-30T11:13:53.328Z,18.60
2019-05-30T11:14:53.737Z,18.58
2019-05-30T11:15:53.501Z,18.58
2019-05-30T11:16:53.657Z,18.63
2019-05-30T11:17:53.333Z,18.57
2019-05-30T11:18:53.135Z,18.67
2019-05-30T11:19:52.139Z,18.70
2019-05-30T11:20:52.384Z,18.73
2019-05-30T11:21:52.794Z,18.78
2019-05-30T11:22:53.345Z,18.76
2019-05-30T11:23:52.610Z,18.85
2019-05-30T11:24:52.746Z,18.90
2019-05-30T11:25:52.596Z,18.95
2019-05-30T11:26:52.596Z,18.87
2019-05-30T11:27:52.694Z,18.84
2019-05-30T11:28:52.600Z,18.80
2019-05-30T11:29:52.953Z,18.87
2019-05-30T11:30:52.740Z,18.87
2019-05-30T11:31:52.899Z,19.02
2019-05-30T11:32:53.077Z,19.10
2019-05-30T11:33:52.879Z,19.07
2019-05-30T11:34:53.029Z,19.13
2019-05-30T11:35:52.999Z,19.10
2019-05-30T11:36:53.010Z,19.04
2019-05-30T11:37:52.993Z,19.14
2019-05-30T11:38:52.457Z,19.16
2019-05-30T11:39:53.164Z,19.23
2019-05-30T11:40:51.919Z,19.19
2019-05-30T11:41:51.873Z,19.22
2019-05-30T11:42:51.865Z,19.21
2019-05-30T11:43:51.853Z,19.14
2019-05-30T11:44:51.849Z,19.28
2019-05-30T11:45:51.831Z,19.16
2019-05-30T11:46:51.829Z,19.19
2019-05-30T11:47:51.826Z,19.25
2019-05-30T11:48:51.803Z,19.22
2019-05-30T11:49:51.807Z,19.23
2019-05-30T11:50:52.071Z,19.25
2019-05-30T11:51:51.769Z,19.33
2019-05-30T11:52:51.820Z,19.25
2019-05-30T11:53:51.832Z,19.33
2019-05-30T11:54:52.069Z,19.39
2019-05-30T11:55:52.317Z,19.32
2019-05-30T11:56:52.046Z,19.26
2019-05-30T11:57:52.069Z,19.39
2019-05-30T11:58:52.025Z,19.31
2019-05-30T11:59:52.168Z,19.31
2019-05-30T12:00:53.065Z,19.32
2019-05-30T12:01:52.905Z,19.33
2019-05-30T12:02:52.172Z,19.36
2019-05-30T12:03:52.549Z,19.32
2019-05-30T12:04:52.552Z,19.44
2019-05-30T12:05:52.515Z,19.41
2019-05-30T12:06:53.021Z,19.41
2019-05-30T12:07:52.803Z,19.55
2019-05-30T12:08:52.686Z,19.47
2019-05-30T12:09:52.803Z,19.48
2019-05-30T12:10:52.973Z,19.55
2019-05-30T12:11:51.548Z,19.51
2019-05-30T12:12:51.535Z,19.58
2019-05-30T12:13:51.796Z,19.61
2019-05-30T12:14:51.545Z,19.59
2019-05-30T12:15:51.539Z,19.66
2019-05-30T12:16:51.497Z,19.68
2019-05-30T12:17:51.475Z,19.69
2019-05-30T12:18:51.496Z,19.69
2019-05-30T12:19:51.478Z,19.63
2019-05-30T12:20:52.028Z,19.81
2019-05-30T12:21:51.571Z,19.73
2019-05-30T12:22:51.749Z,19.74
2019-05-30T12:23:51.916Z,19.73
2019-05-30T12:24:51.737Z,19.80
2019-05-30T12:25:51.954Z,19.81
2019-05-30T12:26:51.859Z,19.87
2019-05-30T12:27:52.046Z,19.87
2019-05-30T12:28:52.034Z,19.84
2019-05-30T12:29:52.111Z,19.98
2019-05-30T12:30:56.668Z,19.94
2019-05-30T12:31:55.201Z,19.95
2019-05-30T12:32:52.414Z,19.96
2019-05-30T12:33:52.304Z,19.99
2019-05-30T12:34:52.327Z,19.98
2019-05-30T12:35:52.379Z,20.13
2019-05-30T12:36:52.320Z,20.11
2019-05-30T12:37:56.236Z,20.17
2019-05-30T12:38:52.274Z,20.24
2019-05-30T12:39:52.413Z,20.24
2019-05-30T12:40:52.571Z,20.31
2019-05-30T12:41:51.210Z,20.33
2019-05-30T12:42:54.508Z,20.39
2019-05-30T12:43:53.011Z,20.39
2019-05-30T12:44:51.174Z,20.48
2019-05-30T12:45:51.185Z,20.43
2019-05-30T12:46:51.153Z,20.50
2019-05-30T12:47:51.141Z,20.55
2019-05-30T12:48:51.557Z,20.59
2019-05-30T12:49:51.120Z,20.62
2019-05-30T12:50:51.127Z,20.74
2019-05-30T12:51:51.099Z,20.76